Terminal Aerodrome Forecast
Issued by NWS Lake Charles, LA

Home | Current Version | Previous Version | Text Only | Print | Product List | Glossary On
Versions: 1 2 3 4 5 6 7 8 9 10 11 12 13 14 15 16 17
000
FTUS44 KLCH 221700
TAFLCH
TAF
KLCH 221720Z 2218/2318 21004KT P6SM SCT030
     FM222000 20006KT P6SM VCTS SCT035CB SCT200
     FM230100 VRB03KT P6SM FEW050 SCT200
     FM230900 00000KT P6SM SCT020=

USA.gov is the U.S. government's official web portal to all federal, state and local government web resources and services.